createdAt,value
2023-01-30T00:00:24.227Z,22.15
2023-01-30T00:00:58.900Z,22.14
2023-01-30T00:01:33.889Z,22.14
2023-01-30T00:02:06.364Z,22.14
2023-01-30T00:02:38.785Z,22.14
2023-01-30T00:03:11.165Z,22.14
2023-01-30T00:03:43.653Z,22.13
2023-01-30T00:04:17.359Z,22.13
2023-01-30T00:04:49.948Z,22.13
2023-01-30T00:05:22.430Z,22.13
2023-01-30T00:05:54.965Z,22.13
2023-01-30T00:06:28.166Z,22.12
2023-01-30T00:07:00.579Z,22.12
2023-01-30T00:07:32.996Z,22.12
2023-01-30T00:08:05.624Z,22.12
2023-01-30T00:08:38.011Z,22.11
2023-01-30T00:09:15.068Z,22.11
2023-01-30T00:09:47.691Z,22.11
2023-01-30T00:10:20.395Z,22.11
2023-01-30T00:10:52.814Z,22.11
2023-01-30T00:11:25.322Z,22.11
2023-01-30T00:11:57.732Z,22.11
2023-01-30T00:12:30.144Z,22.10
2023-01-30T00:13:02.535Z,22.10
2023-01-30T00:13:35.491Z,22.10
2023-01-30T00:14:07.868Z,22.10
2023-01-30T00:14:40.231Z,22.09
2023-01-30T00:15:12.606Z,22.09
2023-01-30T00:15:45.057Z,22.09
2023-01-30T00:16:18.858Z,22.09
2023-01-30T00:16:51.275Z,22.08
2023-01-30T00:17:23.700Z,22.08
2023-01-30T00:17:56.097Z,22.08
2023-01-30T00:18:28.497Z,22.08
2023-01-30T00:19:00.914Z,22.08
2023-01-30T00:19:33.311Z,22.08
2023-01-30T00:20:06.039Z,22.07
2023-01-30T00:20:38.494Z,22.07
2023-01-30T00:21:13.529Z,22.07
2023-01-30T00:21:45.924Z,22.07
2023-01-30T00:22:18.334Z,22.06
2023-01-30T00:23:00.496Z,22.06
2023-01-30T00:23:34.783Z,22.06
2023-01-30T00:24:07.478Z,22.06
2023-01-30T00:24:39.920Z,22.06
2023-01-30T00:25:12.498Z,22.06
2023-01-30T00:25:46.850Z,22.06
2023-01-30T00:26:19.380Z,22.05
2023-01-30T00:26:51.934Z,22.05
2023-01-30T00:27:24.387Z,22.05
2023-01-30T00:27:56.829Z,22.05
2023-01-30T00:28:29.219Z,22.05
2023-01-30T00:29:01.624Z,22.05
2023-01-30T00:29:34.045Z,22.04
2023-01-30T00:30:07.365Z,22.04
2023-01-30T00:30:39.788Z,22.04
2023-01-30T00:31:12.226Z,22.03
2023-01-30T00:31:44.662Z,22.03
2023-01-30T00:32:17.102Z,22.03
2023-01-30T00:32:49.539Z,22.03
2023-01-30T00:33:24.191Z,22.03
2023-01-30T00:33:56.575Z,22.02
2023-01-30T00:34:28.970Z,22.02
2023-01-30T00:35:01.380Z,22.02
2023-01-30T00:35:33.826Z,22.02
2023-01-30T00:36:06.635Z,22.01
2023-01-30T00:36:39.040Z,22.01
2023-01-30T00:37:11.423Z,22.01
2023-01-30T00:37:43.802Z,22.01
2023-01-30T00:38:16.397Z,22.00
2023-01-30T00:38:48.791Z,22.00
2023-01-30T00:39:21.148Z,22.00
2023-01-30T00:39:53.527Z,22.00
2023-01-30T00:40:30.362Z,22.00
2023-01-30T00:41:02.842Z,22.00
2023-01-30T00:41:54.245Z,22.00
2023-01-30T00:42:45.364Z,21.99
2023-01-30T00:43:38.238Z,21.99
2023-01-30T00:44:29.314Z,21.99
2023-01-30T00:45:20.587Z,21.98
2023-01-30T00:46:13.930Z,21.98
2023-01-30T00:47:04.884Z,21.98
2023-01-30T00:47:37.346Z,21.98
2023-01-30T00:48:09.727Z,21.97
2023-01-30T00:48:42.316Z,21.97
2023-01-30T00:49:15.015Z,21.97
2023-01-30T00:49:47.413Z,21.97
2023-01-30T00:50:19.868Z,21.97
2023-01-30T00:50:52.323Z,21.96
2023-01-30T00:51:24.859Z,21.96
2023-01-30T00:51:57.351Z,21.96
2023-01-30T00:52:29.727Z,21.95
2023-01-30T00:53:02.103Z,21.95
2023-01-30T00:53:34.576Z,21.95
2023-01-30T00:54:07.017Z,21.95
2023-01-30T00:54:39.521Z,21.94
2023-01-30T00:55:11.997Z,21.94
2023-01-30T00:55:45.648Z,21.94
2023-01-30T00:56:18.103Z,21.94
2023-01-30T00:56:50.523Z,21.94
2023-01-30T00:57:23.092Z,21.94
2023-01-30T00:57:55.513Z,21.94
2023-01-30T00:58:28.140Z,21.94
2023-01-30T00:59:00.573Z,21.93
2023-01-30T00:59:32.988Z,21.93
2023-01-30T01:00:06.271Z,21.93
2023-01-30T01:00:39.016Z,21.93
2023-01-30T01:01:11.408Z,21.93
2023-01-30T01:01:43.859Z,21.92
2023-01-30T01:02:16.300Z,21.92
2023-01-30T01:02:48.722Z,21.92
2023-01-30T01:03:21.615Z,21.92
2023-01-30T01:03:54.072Z,21.92
2023-01-30T01:04:26.621Z,21.92
2023-01-30T01:04:59.015Z,21.91
2023-01-30T01:05:31.648Z,21.91
2023-01-30T01:06:04.149Z,21.91
2023-01-30T01:06:37.271Z,21.91
2023-01-30T01:07:14.276Z,21.91
2023-01-30T01:07:46.667Z,21.90
2023-01-30T01:08:20.168Z,21.90
2023-01-30T01:08:52.638Z,21.89
2023-01-30T01:09:25.042Z,21.89
2023-01-30T01:09:57.420Z,21.89
2023-01-30T01:10:29.898Z,21.89
2023-01-30T01:11:02.323Z,21.89
2023-01-30T01:11:34.797Z,21.89
2023-01-30T01:12:07.570Z,21.89
2023-01-30T01:12:39.971Z,21.89
2023-01-30T01:13:12.359Z,21.89
2023-01-30T01:13:44.735Z,21.88
2023-01-30T01:14:17.139Z,21.88
2023-01-30T01:14:49.666Z,21.88
2023-01-30T01:15:23.771Z,21.88
2023-01-30T01:15:56.180Z,21.88
2023-01-30T01:16:29.563Z,21.88
2023-01-30T01:17:01.958Z,21.88
2023-01-30T01:17:34.357Z,21.87
2023-01-30T01:18:07.039Z,21.87
2023-01-30T01:18:39.423Z,21.87
2023-01-30T01:19:11.809Z,21.87
2023-01-30T01:19:44.197Z,21.86
2023-01-30T01:20:17.819Z,21.86
2023-01-30T01:20:50.241Z,21.86
2023-01-30T01:21:23.236Z,21.86
2023-01-30T01:21:55.628Z,21.86
2023-01-30T01:22:28.189Z,21.85
2023-01-30T01:23:00.610Z,21.85
2023-01-30T01:23:33.013Z,21.85
2023-01-30T01:24:05.592Z,21.84
2023-01-30T01:24:37.992Z,21.84
2023-01-30T01:25:11.463Z,21.84
2023-01-30T01:25:43.861Z,21.84
2023-01-30T01:26:16.319Z,21.83
2023-01-30T01:26:48.748Z,21.83
2023-01-30T01:27:21.168Z,21.83
2023-01-30T01:27:55.392Z,21.83
2023-01-30T01:28:27.777Z,21.83
2023-01-30T01:29:00.273Z,21.83
2023-01-30T01:29:32.665Z,21.83
2023-01-30T01:30:06.916Z,21.83
2023-01-30T01:30:39.433Z,21.83
2023-01-30T01:31:13.439Z,21.83
2023-01-30T01:31:46.181Z,21.82
2023-01-30T01:32:18.596Z,21.82
2023-01-30T01:32:50.994Z,21.82
2023-01-30T01:33:27.251Z,21.82
2023-01-30T01:33:59.676Z,21.82
2023-01-30T01:34:32.091Z,21.81
2023-01-30T01:35:04.830Z,21.81
2023-01-30T01:35:41.675Z,21.81
2023-01-30T01:36:29.298Z,21.81
2023-01-30T01:37:06.448Z,21.81
2023-01-30T01:37:39.167Z,21.80
2023-01-30T01:38:11.600Z,21.80
2023-01-30T01:38:44.696Z,21.80
2023-01-30T01:39:17.096Z,21.80
2023-01-30T01:40:08.276Z,21.79
2023-01-30T01:40:59.635Z,21.79
2023-01-30T01:41:32.108Z,21.78
2023-01-30T01:42:04.691Z,21.78
2023-01-30T01:42:38.698Z,21.78
2023-01-30T01:43:21.924Z,21.78
2023-01-30T01:44:14.563Z,21.78
2023-01-30T01:45:17.808Z,21.77
2023-01-30T01:45:54.837Z,21.77
2023-01-30T01:46:41.442Z,21.77
2023-01-30T01:47:13.858Z,21.77
2023-01-30T01:47:49.023Z,21.77
2023-01-30T01:48:35.816Z,21.77
2023-01-30T01:49:34.904Z,21.76
2023-01-30T01:50:16.354Z,21.76
2023-01-30T01:50:54.981Z,21.76
2023-01-30T01:51:48.232Z,21.75
2023-01-30T01:52:20.663Z,21.75
2023-01-30T01:52:55.412Z,21.75
2023-01-30T01:53:34.730Z,21.75
2023-01-30T01:54:12.080Z,21.75
2023-01-30T01:54:51.389Z,21.75
2023-01-30T01:55:25.587Z,21.74
2023-01-30T01:55:59.517Z,21.74
2023-01-30T01:56:34.452Z,21.74
2023-01-30T01:57:12.200Z,21.74
2023-01-30T01:58:02.264Z,21.74
2023-01-30T01:58:46.517Z,21.73
2023-01-30T01:59:31.355Z,21.73
2023-01-30T02:00:11.656Z,21.73
2023-01-30T02:00:44.316Z,21.73
2023-01-30T02:01:16.778Z,21.73
2023-01-30T02:01:50.802Z,21.72
2023-01-30T02:02:23.545Z,21.72
2023-01-30T02:03:03.059Z,21.72
2023-01-30T02:03:40.199Z,21.72
2023-01-30T02:04:13.057Z,21.72
2023-01-30T02:05:02.108Z,21.72
2023-01-30T02:05:42.111Z,21.71
2023-01-30T02:06:15.505Z,21.71
2023-01-30T02:06:47.923Z,21.71
2023-01-30T02:07:22.767Z,21.70
2023-01-30T02:07:55.131Z,21.70
2023-01-30T02:08:39.826Z,21.70
2023-01-30T02:09:12.766Z,21.70
2023-01-30T02:09:45.451Z,21.70
2023-01-30T02:10:24.682Z,21.69
2023-01-30T02:11:18.661Z,21.69
2023-01-30T02:11:57.076Z,21.69
2023-01-30T02:12:29.477Z,21.68
2023-01-30T02:13:01.857Z,21.68
2023-01-30T02:13:34.946Z,21.68
2023-01-30T02:14:07.466Z,21.68
2023-01-30T02:14:40.985Z,21.68
2023-01-30T02:15:13.529Z,21.68
2023-01-30T02:15:46.213Z,21.68
2023-01-30T02:16:19.190Z,21.68
2023-01-30T02:16:51.587Z,21.67
2023-01-30T02:17:25.001Z,21.67
2023-01-30T02:17:57.457Z,21.67
2023-01-30T02:18:31.925Z,21.67
2023-01-30T02:19:07.564Z,21.67
2023-01-30T02:19:52.868Z,21.67
2023-01-30T02:20:50.039Z,21.67
2023-01-30T02:21:47.606Z,21.66
2023-01-30T02:22:50.950Z,21.66
2023-01-30T02:23:54.233Z,21.66
2023-01-30T02:25:06.402Z,21.66
2023-01-30T02:26:12.152Z,21.65
2023-01-30T02:27:05.860Z,21.64
2023-01-30T02:28:05.766Z,21.64
2023-01-30T02:28:59.425Z,21.64
2023-01-30T02:29:38.768Z,21.64
2023-01-30T02:31:05.108Z,21.64
2023-01-30T02:31:58.688Z,21.64
2023-01-30T02:32:50.951Z,21.63
2023-01-30T02:34:00.244Z,21.63
2023-01-30T02:34:53.060Z,21.63
2023-01-30T02:35:36.116Z,21.63
2023-01-30T02:36:22.319Z,21.62
2023-01-30T02:37:31.501Z,21.62
2023-01-30T02:38:28.147Z,21.61
2023-01-30T02:39:08.283Z,21.61
2023-01-30T02:40:13.800Z,21.61
2023-01-30T02:40:58.183Z,21.61
2023-01-30T02:41:43.550Z,21.60
2023-01-30T02:42:26.191Z,21.60
2023-01-30T02:43:16.844Z,21.59
2023-01-30T02:44:07.869Z,21.59
2023-01-30T02:45:00.119Z,21.59
2023-01-30T02:45:46.070Z,21.59
2023-01-30T02:46:23.592Z,21.58
2023-01-30T02:47:05.229Z,21.58
2023-01-30T02:47:45.228Z,21.58
2023-01-30T02:48:50.480Z,21.58
2023-01-30T02:49:33.437Z,21.58
2023-01-30T02:50:39.212Z,21.58
2023-01-30T02:51:23.212Z,21.58
2023-01-30T02:51:57.988Z,21.58
2023-01-30T02:52:31.634Z,21.57
2023-01-30T02:53:06.493Z,21.57
2023-01-30T02:53:39.219Z,21.57
2023-01-30T02:54:13.189Z,21.57
2023-01-30T02:54:45.583Z,21.57
2023-01-30T02:55:29.997Z,21.57
2023-01-30T02:56:02.516Z,21.56
2023-01-30T02:56:50.081Z,21.56
2023-01-30T02:57:24.378Z,21.56
2023-01-30T02:57:56.945Z,21.56
2023-01-30T02:58:35.846Z,21.56
2023-01-30T02:59:08.329Z,21.55
2023-01-30T02:59:45.882Z,21.55
2023-01-30T03:00:24.798Z,21.55
2023-01-30T03:01:18.556Z,21.55
2023-01-30T03:02:38.798Z,21.55
2023-01-30T03:03:48.053Z,21.55
2023-01-30T03:04:32.596Z,21.54
2023-01-30T03:05:22.730Z,21.54
2023-01-30T03:06:28.498Z,21.53
2023-01-30T03:07:34.856Z,21.53
2023-01-30T03:08:25.085Z,21.53
2023-01-30T03:09:12.599Z,21.53
2023-01-30T03:10:26.495Z,21.52
2023-01-30T03:11:11.033Z,21.52
2023-01-30T03:11:57.219Z,21.52
2023-01-30T03:12:29.614Z,21.51
2023-01-30T03:13:07.095Z,21.51
2023-01-30T03:13:42.358Z,21.51
2023-01-30T03:14:49.669Z,21.51
2023-01-30T03:15:35.261Z,21.51
2023-01-30T03:16:13.943Z,21.50
2023-01-30T03:16:48.757Z,21.50
2023-01-30T03:17:24.809Z,21.50
2023-01-30T03:17:58.299Z,21.50
2023-01-30T03:18:30.772Z,21.50
2023-01-30T03:19:05.382Z,21.50
2023-01-30T03:19:37.848Z,21.50
2023-01-30T03:20:11.590Z,21.50
2023-01-30T03:20:44.071Z,21.50
2023-01-30T03:21:16.443Z,21.50
2023-01-30T03:21:48.842Z,21.50
2023-01-30T03:22:21.948Z,21.50
2023-01-30T03:22:55.470Z,21.50
2023-01-30T03:23:28.054Z,21.49
2023-01-30T03:24:00.491Z,21.49
2023-01-30T03:24:33.088Z,21.49
2023-01-30T03:25:05.779Z,21.49
2023-01-30T03:25:41.105Z,21.49
2023-01-30T03:26:19.672Z,21.49
2023-01-30T03:27:03.994Z,21.48
2023-01-30T03:27:36.915Z,21.48
2023-01-30T03:28:10.652Z,21.48
2023-01-30T03:28:43.127Z,21.48
2023-01-30T03:29:16.179Z,21.47
2023-01-30T03:29:48.605Z,21.47
2023-01-30T03:30:21.491Z,21.47
2023-01-30T03:30:53.933Z,21.47
2023-01-30T03:31:26.513Z,21.47
2023-01-30T03:31:58.985Z,21.47
2023-01-30T03:32:31.364Z,21.47
2023-01-30T03:33:03.813Z,21.46
2023-01-30T03:33:36.263Z,21.46
2023-01-30T03:34:08.677Z,21.46
2023-01-30T03:34:41.854Z,21.46
2023-01-30T03:35:17.778Z,21.46
2023-01-30T03:35:51.374Z,21.46
2023-01-30T03:36:23.776Z,21.45
2023-01-30T03:36:56.969Z,21.45
2023-01-30T03:37:29.470Z,21.45
2023-01-30T03:38:01.855Z,21.45
2023-01-30T03:38:35.691Z,21.45
2023-01-30T03:39:08.437Z,21.45
2023-01-30T03:39:40.940Z,21.45
2023-01-30T03:40:14.870Z,21.45
2023-01-30T03:40:47.627Z,21.44
2023-01-30T03:41:20.038Z,21.44
2023-01-30T03:41:53.553Z,21.44
2023-01-30T03:42:25.980Z,21.44
2023-01-30T03:42:58.371Z,21.44
2023-01-30T03:43:30.992Z,21.43
2023-01-30T03:44:03.491Z,21.43
2023-01-30T03:44:35.924Z,21.43
2023-01-30T03:45:09.002Z,21.43
2023-01-30T03:45:41.425Z,21.43
2023-01-30T03:46:13.909Z,21.42
2023-01-30T03:46:46.355Z,21.42
2023-01-30T03:47:18.724Z,21.42
2023-01-30T03:47:51.951Z,21.42
2023-01-30T03:48:24.392Z,21.42
2023-01-30T03:48:56.777Z,21.42
2023-01-30T03:49:29.174Z,21.42
2023-01-30T03:50:01.682Z,21.42
2023-01-30T03:50:34.199Z,21.42
2023-01-30T03:51:07.272Z,21.42
2023-01-30T03:51:39.701Z,21.42
2023-01-30T03:52:12.141Z,21.42
2023-01-30T03:52:44.552Z,21.42
2023-01-30T03:53:16.908Z,21.42
2023-01-30T03:53:49.300Z,21.42
2023-01-30T03:54:21.820Z,21.42
2023-01-30T03:54:54.454Z,21.42
2023-01-30T03:55:26.912Z,21.42
2023-01-30T03:55:59.284Z,21.42
2023-01-30T03:56:32.239Z,21.42
2023-01-30T03:57:04.658Z,21.42
2023-01-30T03:57:37.061Z,21.42
2023-01-30T03:58:09.470Z,21.42
2023-01-30T03:58:41.891Z,21.42
2023-01-30T03:59:14.293Z,21.42
2023-01-30T03:59:46.651Z,21.42
2023-01-30T04:00:19.565Z,21.42
2023-01-30T04:00:52.047Z,21.42
2023-01-30T04:01:24.552Z,21.42
2023-01-30T04:01:57.925Z,21.43
2023-01-30T04:02:30.376Z,21.43
2023-01-30T04:03:02.803Z,21.43
2023-01-30T04:03:35.550Z,21.43
2023-01-30T04:04:07.987Z,21.44
2023-01-30T04:04:40.412Z,21.44
2023-01-30T04:05:12.822Z,21.44
2023-01-30T04:05:45.252Z,21.45
2023-01-30T04:06:17.627Z,21.45
2023-01-30T04:06:50.031Z,21.45
2023-01-30T04:07:22.477Z,21.46
2023-01-30T04:07:58.037Z,21.46
2023-01-30T04:08:30.443Z,21.47
2023-01-30T04:09:02.870Z,21.47
2023-01-30T04:09:35.255Z,21.48
2023-01-30T04:10:07.938Z,21.48
2023-01-30T04:10:40.384Z,21.49
2023-01-30T04:11:12.801Z,21.49
2023-01-30T04:11:45.214Z,21.49
2023-01-30T04:12:17.611Z,21.50
2023-01-30T04:12:51.587Z,21.50
2023-01-30T04:13:24.019Z,21.51
2023-01-30T04:13:56.445Z,21.51
2023-01-30T04:14:28.858Z,21.52
2023-01-30T04:15:01.263Z,21.53
2023-01-30T04:15:33.839Z,21.53
2023-01-30T04:16:24.955Z,21.54
2023-01-30T04:16:57.506Z,21.55
2023-01-30T04:17:29.973Z,21.56
2023-01-30T04:18:02.359Z,21.56
2023-01-30T04:18:34.941Z,21.57
2023-01-30T04:19:07.311Z,21.58
2023-01-30T04:19:39.699Z,21.58
2023-01-30T04:20:12.708Z,21.59
2023-01-30T04:20:45.248Z,21.60
2023-01-30T04:21:18.370Z,21.61
2023-01-30T04:21:50.784Z,21.61
2023-01-30T04:22:23.172Z,21.62
2023-01-30T04:22:58.313Z,21.63
2023-01-30T04:23:30.727Z,21.63
2023-01-30T04:24:03.152Z,21.64
2023-01-30T04:24:35.559Z,21.65
2023-01-30T04:25:08.360Z,21.66
2023-01-30T04:25:40.764Z,21.66
2023-01-30T04:26:14.046Z,21.67
2023-01-30T04:26:46.454Z,21.68
2023-01-30T04:27:18.863Z,21.69
2023-01-30T04:27:51.336Z,21.70
2023-01-30T04:28:23.715Z,21.70
2023-01-30T04:28:56.324Z,21.71
2023-01-30T04:29:28.704Z,21.73
2023-01-30T04:30:01.204Z,21.73
2023-01-30T04:30:33.645Z,21.74
2023-01-30T04:31:06.701Z,21.75
2023-01-30T04:31:39.209Z,21.76
2023-01-30T04:32:11.628Z,21.77
2023-01-30T04:32:44.056Z,21.78
2023-01-30T04:33:16.437Z,21.79
2023-01-30T04:33:48.826Z,21.80
2023-01-30T04:34:21.212Z,21.81
2023-01-30T04:34:53.613Z,21.82
2023-01-30T04:35:26.065Z,21.83
2023-01-30T04:36:00.323Z,21.84
2023-01-30T04:36:32.699Z,21.85
2023-01-30T04:37:05.206Z,21.86
2023-01-30T04:37:37.646Z,21.86
2023-01-30T04:38:10.066Z,21.88
2023-01-30T04:38:42.489Z,21.89
2023-01-30T04:39:14.885Z,21.89
2023-01-30T04:39:47.252Z,21.90
2023-01-30T04:40:19.737Z,21.92
2023-01-30T04:40:53.322Z,21.93
2023-01-30T04:41:25.718Z,21.93
2023-01-30T04:41:58.154Z,21.95
2023-01-30T04:42:30.566Z,21.96
2023-01-30T04:43:02.943Z,21.97
2023-01-30T04:43:35.930Z,21.98
2023-01-30T04:44:08.427Z,21.99
2023-01-30T04:44:40.845Z,22.00
2023-01-30T04:45:13.314Z,22.01
2023-01-30T04:45:47.083Z,22.02
2023-01-30T04:46:19.555Z,22.04
2023-01-30T04:46:51.922Z,22.05
2023-01-30T04:47:24.401Z,22.06
2023-01-30T04:47:56.867Z,22.07
2023-01-30T04:48:29.478Z,22.08
2023-01-30T04:49:01.865Z,22.09
2023-01-30T04:49:34.299Z,22.11
2023-01-30T04:50:07.208Z,22.12
2023-01-30T04:50:40.575Z,22.13
2023-01-30T04:51:12.985Z,22.14
2023-01-30T04:51:45.361Z,22.15
2023-01-30T04:52:17.758Z,22.17
2023-01-30T04:52:50.149Z,22.18
2023-01-30T04:53:23.121Z,22.19
2023-01-30T04:53:55.503Z,22.20
2023-01-30T04:54:27.894Z,22.21
2023-01-30T04:55:00.319Z,22.23
2023-01-30T04:55:32.904Z,22.25
2023-01-30T04:56:05.625Z,22.26
2023-01-30T04:56:38.031Z,22.27
2023-01-30T04:57:10.428Z,22.28
2023-01-30T04:57:42.817Z,22.29
2023-01-30T04:58:16.181Z,22.31
2023-01-30T04:58:48.563Z,22.32
2023-01-30T04:59:21.019Z,22.33
2023-01-30T04:59:53.406Z,22.34
2023-01-30T05:00:26.159Z,22.36
2023-01-30T05:01:16.937Z,22.37
2023-01-30T05:01:49.365Z,22.39
2023-01-30T05:02:23.098Z,22.40
2023-01-30T05:02:56.313Z,22.41
2023-01-30T05:03:28.710Z,22.43
2023-01-30T05:04:01.121Z,22.44
2023-01-30T05:04:33.562Z,22.45
2023-01-30T05:05:06.361Z,22.46
2023-01-30T05:05:38.783Z,22.48
2023-01-30T05:06:11.195Z,22.49
2023-01-30T05:06:43.592Z,22.50
2023-01-30T05:07:16.007Z,22.52
2023-01-30T05:07:48.665Z,22.53
2023-01-30T05:08:21.040Z,22.54
2023-01-30T05:08:55.281Z,22.56
2023-01-30T05:09:27.723Z,22.57
2023-01-30T05:10:00.157Z,22.59
2023-01-30T05:10:32.609Z,22.60
2023-01-30T05:11:05.044Z,22.61
2023-01-30T05:11:37.473Z,22.63
2023-01-30T05:12:09.972Z,22.64
2023-01-30T05:12:42.418Z,22.65
2023-01-30T05:13:14.797Z,22.67
2023-01-30T05:13:47.420Z,22.68
2023-01-30T05:14:19.802Z,22.69
2023-01-30T05:14:52.254Z,22.70
2023-01-30T05:15:24.665Z,22.71
2023-01-30T05:15:57.279Z,22.73
2023-01-30T05:16:30.400Z,22.74
2023-01-30T05:17:02.885Z,22.75
2023-01-30T05:17:35.821Z,22.76
2023-01-30T05:18:08.329Z,22.78
2023-01-30T05:18:40.750Z,22.79
2023-01-30T05:19:14.014Z,22.81
2023-01-30T05:19:46.431Z,22.82
2023-01-30T05:20:18.983Z,22.83
2023-01-30T05:20:51.531Z,22.84
2023-01-30T05:21:27.845Z,22.86
2023-01-30T05:22:00.286Z,22.88
2023-01-30T05:22:32.667Z,22.89
2023-01-30T05:23:05.108Z,22.90
2023-01-30T05:23:37.513Z,22.92
2023-01-30T05:24:09.882Z,22.93
2023-01-30T05:24:42.428Z,22.94
2023-01-30T05:25:14.893Z,22.95
2023-01-30T05:25:47.261Z,22.96
2023-01-30T05:26:20.094Z,22.98
2023-01-30T05:26:52.486Z,22.99
2023-01-30T05:27:24.916Z,23.00
2023-01-30T05:27:57.299Z,23.01
2023-01-30T05:28:30.405Z,23.02
2023-01-30T05:29:02.863Z,23.04
2023-01-30T05:29:35.276Z,23.04
2023-01-30T05:30:08.398Z,23.06
2023-01-30T05:30:40.888Z,23.07
2023-01-30T05:31:14.705Z,23.08
2023-01-30T05:31:47.235Z,23.09
2023-01-30T05:32:20.582Z,23.11
2023-01-30T05:32:53.037Z,23.12
2023-01-30T05:33:25.448Z,23.13
2023-01-30T05:33:57.879Z,23.14
2023-01-30T05:34:30.369Z,23.15
2023-01-30T05:35:02.748Z,23.17
2023-01-30T05:35:35.142Z,23.18
2023-01-30T05:36:08.538Z,23.18
2023-01-30T05:36:41.010Z,23.20
2023-01-30T05:37:13.679Z,23.21
2023-01-30T05:37:51.195Z,23.22
2023-01-30T05:38:24.446Z,23.23
2023-01-30T05:38:56.875Z,23.24
2023-01-30T05:39:29.274Z,23.25
2023-01-30T05:40:01.713Z,23.26
2023-01-30T05:40:34.287Z,23.27
2023-01-30T05:41:08.875Z,23.28
2023-01-30T05:41:41.279Z,23.28
2023-01-30T05:42:13.667Z,23.29
2023-01-30T05:42:46.035Z,23.31
2023-01-30T05:43:18.430Z,23.32
2023-01-30T05:43:51.575Z,23.33
2023-01-30T05:44:24.013Z,23.34
2023-01-30T05:44:56.442Z,23.35
2023-01-30T05:45:28.836Z,23.36
2023-01-30T05:46:02.539Z,23.37
2023-01-30T05:46:34.998Z,23.38
2023-01-30T05:47:07.412Z,23.38
2023-01-30T05:47:39.944Z,23.39
2023-01-30T05:48:12.341Z,23.40
2023-01-30T05:48:44.827Z,23.41
2023-01-30T05:49:17.632Z,23.41
2023-01-30T05:49:49.989Z,23.42
2023-01-30T05:50:22.542Z,23.43
2023-01-30T05:50:56.140Z,23.44
2023-01-30T05:51:28.784Z,23.44
2023-01-30T05:52:01.168Z,23.45
2023-01-30T05:52:33.546Z,23.46
2023-01-30T05:53:05.928Z,23.47
2023-01-30T05:53:38.311Z,23.47
2023-01-30T05:54:10.733Z,23.48
2023-01-30T05:54:43.141Z,23.49
2023-01-30T05:55:15.648Z,23.50
2023-01-30T05:55:48.279Z,23.50
2023-01-30T05:56:21.116Z,23.51
2023-01-30T05:56:53.541Z,23.52
2023-01-30T05:57:25.918Z,23.52
2023-01-30T05:57:58.293Z,23.53
2023-01-30T05:58:31.620Z,23.53
2023-01-30T05:59:04.088Z,23.54
2023-01-30T05:59:36.506Z,23.55
2023-01-30T06:00:10.748Z,23.56
2023-01-30T06:00:43.131Z,23.57
2023-01-30T06:01:15.536Z,23.57
2023-01-30T06:01:48.019Z,23.58
2023-01-30T06:02:20.432Z,23.58
2023-01-30T06:02:52.902Z,23.59
2023-01-30T06:03:25.391Z,23.59
2023-01-30T06:03:59.534Z,23.60
2023-01-30T06:04:31.937Z,23.60
2023-01-30T06:05:04.383Z,23.61
2023-01-30T06:05:39.112Z,23.61
2023-01-30T06:06:12.946Z,23.62
2023-01-30T06:06:45.341Z,23.63
2023-01-30T06:07:17.733Z,23.63
2023-01-30T06:07:50.139Z,23.64
2023-01-30T06:08:22.779Z,23.64
2023-01-30T06:08:56.960Z,23.65
2023-01-30T06:09:29.330Z,23.66
2023-01-30T06:10:01.700Z,23.67
2023-01-30T06:10:34.493Z,23.67
2023-01-30T06:11:12.861Z,23.68
2023-01-30T06:11:45.281Z,23.69
2023-01-30T06:12:17.804Z,23.70
2023-01-30T06:12:50.192Z,23.70
2023-01-30T06:13:22.617Z,23.71
2023-01-30T06:13:55.098Z,23.72
2023-01-30T06:14:27.528Z,23.73
2023-01-30T06:15:00.104Z,23.74
2023-01-30T06:15:32.523Z,23.74
2023-01-30T06:16:06.876Z,23.75
2023-01-30T06:16:39.398Z,23.76
2023-01-30T06:17:11.844Z,23.76
2023-01-30T06:17:44.802Z,23.77
2023-01-30T06:18:17.212Z,23.77
2023-01-30T06:18:49.984Z,23.78
2023-01-30T06:19:22.450Z,23.79
2023-01-30T06:19:54.843Z,23.80
2023-01-30T06:20:27.242Z,23.80
2023-01-30T06:20:59.703Z,23.81
2023-01-30T06:21:32.544Z,23.81
2023-01-30T06:22:04.934Z,23.82
2023-01-30T06:22:38.468Z,23.83
2023-01-30T06:23:10.866Z,23.83
2023-01-30T06:23:44.152Z,23.84
2023-01-30T06:24:16.553Z,23.84
2023-01-30T06:24:48.940Z,23.85
2023-01-30T06:25:21.417Z,23.86
2023-01-30T06:25:54.673Z,23.86
2023-01-30T06:26:27.063Z,23.87
2023-01-30T06:27:00.312Z,23.88
2023-01-30T06:27:32.798Z,23.88
2023-01-30T06:28:05.378Z,23.89
2023-01-30T06:28:38.116Z,23.90
2023-01-30T06:29:10.558Z,23.91
2023-01-30T06:29:43.017Z,23.92
2023-01-30T06:30:15.788Z,23.92
2023-01-30T06:30:48.336Z,23.93
2023-01-30T06:31:20.794Z,23.94
2023-01-30T06:31:53.187Z,23.94
2023-01-30T06:32:25.569Z,23.95
2023-01-30T06:32:57.954Z,23.95
2023-01-30T06:33:32.877Z,23.96
2023-01-30T06:34:05.295Z,23.97
2023-01-30T06:34:37.852Z,23.97
2023-01-30T06:35:10.432Z,23.98
2023-01-30T06:35:43.956Z,23.99
2023-01-30T06:36:16.430Z,23.99
2023-01-30T06:36:48.820Z,24.00
2023-01-30T06:37:21.233Z,24.00
2023-01-30T06:37:53.635Z,24.01
2023-01-30T06:38:26.246Z,24.01
2023-01-30T06:38:58.807Z,24.02
2023-01-30T06:39:31.198Z,24.03
2023-01-30T06:40:03.674Z,24.04
2023-01-30T06:40:36.171Z,24.04
2023-01-30T06:41:08.597Z,24.05
2023-01-30T06:41:41.015Z,24.06
2023-01-30T06:42:13.400Z,24.07
2023-01-30T06:42:47.129Z,24.07
2023-01-30T06:43:19.702Z,24.07
2023-01-30T06:43:52.080Z,24.08
2023-01-30T06:44:24.492Z,24.08
2023-01-30T06:44:56.882Z,24.09
2023-01-30T06:45:29.345Z,24.09
2023-01-30T06:46:01.817Z,24.10
2023-01-30T06:46:34.307Z,24.11
2023-01-30T06:47:06.696Z,24.11
2023-01-30T06:48:05.548Z,24.12
2023-01-30T06:48:38.023Z,24.13
2023-01-30T06:49:10.488Z,24.13
2023-01-30T06:49:42.922Z,24.13
2023-01-30T06:50:16.440Z,24.14
2023-01-30T06:50:48.945Z,24.14
2023-01-30T06:51:21.394Z,24.15
2023-01-30T06:51:53.792Z,24.15
2023-01-30T06:52:26.203Z,24.16
2023-01-30T06:52:59.609Z,24.17
2023-01-30T06:53:32.056Z,24.17
2023-01-30T06:54:04.632Z,24.18
2023-01-30T06:54:37.080Z,24.18
2023-01-30T06:55:11.139Z,24.18
2023-01-30T06:55:43.525Z,24.19
2023-01-30T06:56:15.929Z,24.19
2023-01-30T06:56:48.333Z,24.20
2023-01-30T06:57:20.724Z,24.20
2023-01-30T06:58:13.250Z,24.20
2023-01-30T06:58:45.689Z,24.21
2023-01-30T06:59:18.106Z,24.22
2023-01-30T06:59:50.495Z,24.23
2023-01-30T07:00:23.173Z,24.23
2023-01-30T07:00:55.635Z,24.23
2023-01-30T07:01:29.011Z,24.24
2023-01-30T07:02:01.648Z,24.24
2023-01-30T07:02:35.429Z,24.25
2023-01-30T07:03:18.641Z,24.25
2023-01-30T07:03:51.135Z,24.25
2023-01-30T07:04:23.695Z,24.26
2023-01-30T07:04:56.114Z,24.26
2023-01-30T07:05:31.886Z,24.26
2023-01-30T07:06:04.439Z,24.27
2023-01-30T07:06:37.563Z,24.27
2023-01-30T07:07:10.966Z,24.27
2023-01-30T07:07:43.371Z,24.28
2023-01-30T07:08:17.087Z,24.28
2023-01-30T07:08:49.493Z,24.28
2023-01-30T07:09:21.918Z,24.28
2023-01-30T07:10:06.767Z,24.29
2023-01-30T07:10:41.506Z,24.30
2023-01-30T07:11:13.894Z,24.30
2023-01-30T07:11:47.752Z,24.31
2023-01-30T07:12:20.372Z,24.31
2023-01-30T07:12:53.505Z,24.32
2023-01-30T07:13:25.897Z,24.32
2023-01-30T07:13:58.642Z,24.33
2023-01-30T07:14:31.061Z,24.33
2023-01-30T07:15:03.577Z,24.33
2023-01-30T07:15:35.981Z,24.33
2023-01-30T07:16:08.737Z,24.33
2023-01-30T07:16:41.133Z,24.33
2023-01-30T07:17:14.698Z,24.33
2023-01-30T07:17:47.091Z,24.34
2023-01-30T07:18:19.477Z,24.34
2023-01-30T07:18:51.883Z,24.35
2023-01-30T07:19:24.307Z,24.35
2023-01-30T07:19:56.700Z,24.35
2023-01-30T07:20:31.336Z,24.36
2023-01-30T07:21:03.833Z,24.36
2023-01-30T07:21:36.221Z,24.36
2023-01-30T07:22:08.622Z,24.36
2023-01-30T07:22:41.032Z,24.37
2023-01-30T07:23:13.522Z,24.37
2023-01-30T07:23:47.739Z,24.38
2023-01-30T07:24:20.200Z,24.38
2023-01-30T07:24:52.601Z,24.38
2023-01-30T07:25:26.615Z,24.39
2023-01-30T07:25:59.056Z,24.39
2023-01-30T07:26:31.566Z,24.39
2023-01-30T07:27:04.109Z,24.39
2023-01-30T07:27:36.565Z,24.40
2023-01-30T07:28:10.541Z,24.40
2023-01-30T07:28:42.935Z,24.41
2023-01-30T07:29:15.518Z,24.41
2023-01-30T07:29:47.927Z,24.41
2023-01-30T07:30:20.735Z,24.41
2023-01-30T07:30:53.235Z,24.41
2023-01-30T07:31:25.737Z,24.42
2023-01-30T07:31:58.202Z,24.42